Latest Weather Observations for Terrey Hills

IDN60901

Issued at 9:31 pm EST Saturday 18 April 2015 (issued every 10 minutes, with the page automatically refreshed every 10 minutes)

About weather observations | Map of Sydney area stations | Latest observations for Sydney area | Other Formats
Station Details ID: 066059 Name: TERREY HILLS AWS Lat: -33.69 Lon: 151.23 Height: 199.0 m
Data from the previous 72 hours. | See also: Recent months at Terrey Hills
Date/Time
EST
Tmp

°C
App
Tmp
°C
Dew
Point
°C
Rel
Hum
%
Delta-T

°C
Wind Press
QNH
hPa
Press
MSL
hPa
Rain
since
9 am
mm
Dir
 
Spd
km/h
Gust
km/h
Spd
kts
Gust
kts
18/09:00pm 21.8 21.9 16.5 72 3.2 NNW 11 19 6 10 - - 0.2
18/08:30pm 21.5 22.2 17.1 76 2.7 NNW 9 15 5 8 - - 0.2
18/08:00pm 21.5 22.4 17.5 78 2.5 N 9 15 5 8 - - 0.2
18/07:30pm 21.5 21.7 17.7 79 2.4 N 13 19 7 10 - - 0.2
18/07:00pm 21.4 22.4 17.8 80 2.2 N 9 19 5 10 - - 0.2
18/06:30pm 21.5 22.0 17.5 78 2.5 N 11 19 6 10 - - 0.2
18/06:00pm 21.6 22.6 16.8 74 2.9 N 7 11 4 6 - - 0.2
18/05:30pm 21.8 22.4 16.7 73 3.1 N 9 15 5 8 - - 0.2
18/05:00pm 22.1 22.7 16.8 72 3.3 N 9 15 5 8 - - 0.2
18/04:30pm 22.6 23.1 16.6 69 3.7 N 9 15 5 8 - - 0.2
18/04:00pm 23.2 23.5 17.0 68 3.8 N 11 20 6 11 - - 0.2
18/03:30pm 23.4 23.7 16.9 67 4.0 N 11 17 6 9 - - 0.2
18/03:00pm 23.5 23.7 16.8 66 4.1 N 11 20 6 11 - - 0.2
18/02:30pm 23.7 24.2 17.4 68 3.9 N 11 17 6 9 - - 0.2
18/02:00pm 24.1 24.6 17.4 66 4.2 NNW 11 20 6 11 - - 0.2
18/01:30pm 25.3 25.7 17.2 61 5.1 NNW 11 24 6 13 - - 0.2
18/01:00pm 24.4 25.2 17.4 65 4.4 NNW 9 19 5 10 - - 0.0
18/12:30pm 24.3 25.3 17.8 67 4.1 NNW 9 17 5 9 - - 0.0
18/12:00pm 24.2 24.5 17.0 64 4.5 NNW 11 22 6 12 - - 0.0
18/11:30am 24.8 25.3 17.5 64 4.6 NNW 11 20 6 11 - - 0.0
18/11:00am 23.9 23.8 16.9 65 4.3 NNW 13 22 7 12 - - 0.0
18/10:30am 23.6 22.6 16.6 65 4.3 NNW 17 32 9 17 - - 0.0
18/10:00am 22.9 21.9 16.7 68 3.8 NNW 17 28 9 15 - - 0.0
18/09:30am 22.6 22.7 17.5 73 3.2 NNW 13 22 7 12 - - 0.0
18/09:00am 21.6 22.5 18.4 82 2.0 NNW 11 19 6 10 - - 0.0
18/08:30am 20.7 21.7 18.6 88 1.3 N 11 17 6 9 - - 0.0
18/08:00am 20.0 21.3 19.2 95 0.5 NNW 11 19 6 10 - - 0.0
18/07:30am 19.1 20.3 19.1 100 0.0 NNW 11 15 6 8 - - 0.0
18/07:00am 18.8 19.9 18.8 100 0.0 NNW 11 19 6 10 - - 0.0
18/06:30am 18.8 19.5 18.8 100 0.0 NNW 13 20 7 11 - - 0.0
18/06:00am 18.8 19.5 18.8 100 0.0 NNW 13 20 7 11 - - 0.0
18/05:30am 18.9 20.0 18.9 100 0.0 NNW 11 19 6 10 - - 0.0
18/05:00am 18.8 20.3 18.8 100 0.0 NNW 9 19 5 10 - - 0.0
18/04:30am 18.8 20.8 18.8 100 0.0 NNW 6 11 3 6 - - 0.0
18/04:00am 18.7 20.5 18.7 100 0.0 NNW 7 13 4 7 - - 0.0
18/03:30am 18.8 20.8 18.8 100 0.0 NW 6 11 3 6 - - 0.0
18/03:00am 18.8 20.6 18.8 100 0.0 NW 7 15 4 8 - - 0.0
18/02:30am 19.0 20.9 19.0 100 0.0 NW 7 15 4 8 - - 0.0
18/02:00am 19.1 21.1 19.1 100 0.0 NNW 7 13 4 7 - - 0.0
18/01:30am 19.4 21.1 19.4 100 0.0 NNW 9 15 5 8 - - 0.0
18/01:00am 19.5 21.3 19.5 100 0.0 NNW 9 15 5 8 - - 0.0
18/12:30am 19.4 21.5 19.4 100 0.0 N 7 15 4 8 - - 0.0
18/12:00am 19.3 21.4 19.3 100 0.0 NNW 7 11 4 6 - - 0.0
 
Date/Time
EST
Tmp

°C
App
Tmp
°C
Dew
Point
°C
Rel
Hum
%
Delta-T

°C
Wind Press
QNH
hPa
Press
MSL
hPa
Rain
since
9 am
mm
Dir
 
Spd
km/h
Gust
km/h
Spd
kts
Gust
kts
17/11:30pm 19.4 22.1 19.4 100 0.0 NW 4 6 2 3 - - 0.0
17/11:00pm 19.3 21.5 19.3 100 0.0 N 6 9 3 5 - - 0.0
17/10:30pm 19.4 22.1 19.4 100 0.0 NNE 4 7 2 4 - - 0.0
17/10:00pm 19.3 21.5 19.3 100 0.0 NNE 6 7 3 4 - - 0.0
17/09:30pm 19.2 21.1 19.0 99 0.1 NE 7 11 4 6 - - 0.0
17/09:00pm 19.1 21.2 18.9 99 0.1 NE 6 11 3 6 - - 0.0
17/08:30pm 19.1 21.2 18.9 99 0.1 NE 6 13 3 7 - - 0.0
17/08:00pm 18.9 20.3 18.7 99 0.1 NE 9 13 5 7 - - 0.0
17/07:30pm 18.9 20.7 18.7 99 0.1 ENE 7 11 4 6 - - 0.0
17/07:00pm 19.0 20.8 18.8 99 0.1 ENE 7 9 4 5 - - 0.0
17/06:30pm 19.1 21.2 18.9 99 0.1 E 6 9 3 5 - - 0.0
17/06:00pm 19.0 21.0 18.7 98 0.2 ENE 6 7 3 4 - - 0.0
17/05:30pm 19.1 20.6 18.8 98 0.2 E 9 13 5 7 - - 0.0
17/05:00pm 19.4 20.9 18.9 97 0.3 E 9 13 5 7 - - 0.0
17/04:30pm 19.5 21.0 19.0 97 0.3 E 9 15 5 8 - - 0.0
17/04:00pm 19.7 21.2 19.0 96 0.4 E 9 13 5 7 - - 0.0
17/03:30pm 19.8 21.8 19.1 96 0.4 E 7 13 4 7 - - 0.0
17/03:00pm 20.2 22.4 19.5 96 0.4 E 7 13 4 7 - - 0.0
17/02:30pm 20.0 21.7 19.3 96 0.4 E 9 15 5 8 - - 0.0
17/02:00pm 20.0 22.0 19.2 95 0.5 E 7 11 4 6 - - 0.0
17/01:30pm 20.3 22.4 19.3 94 0.6 E 7 13 4 7 - - 0.0
17/01:00pm 20.2 22.2 19.2 94 0.6 E 7 11 4 6 - - 0.0
17/12:30pm 20.2 22.3 19.4 95 0.5 ENE 7 15 4 8 - - 0.0
17/12:00pm 20.1 22.1 19.1 94 0.6 ENE 7 9 4 5 - - 0.0
17/11:30am 20.0 22.4 19.7 98 0.2 ENE 6 9 3 5 - - 0.0
17/11:00am 19.7 22.0 19.5 99 0.1 E 6 9 3 5 - - 0.0
17/10:30am 19.3 21.4 19.0 98 0.2 E 6 9 3 5 - - 0.0
17/10:00am 19.4 21.4 19.1 98 0.2 E 7 11 4 6 - - 0.0
17/09:30am 19.5 21.2 19.3 99 0.1 E 9 15 5 8 - - 0.0
17/09:00am 19.3 21.0 19.3 100 0.0 E 9 15 5 8 - - 2.2
17/08:30am 19.1 21.3 19.1 100 0.0 E 6 9 3 5 - - 2.2
17/08:00am 18.8 20.3 18.8 100 0.0 ESE 9 13 5 7 - - 2.2
17/07:30am 18.5 20.2 18.5 100 0.0 E 7 11 4 6 - - 2.2
17/07:00am 18.4 19.7 18.4 100 0.0 ESE 9 13 5 7 - - 2.2
17/06:30am 18.4 20.1 18.4 100 0.0 ESE 7 13 4 7 - - 2.2
17/06:00am 18.5 20.2 18.5 100 0.0 ESE 7 11 4 6 - - 2.2
17/05:30am 18.5 20.4 18.5 100 0.0 E 6 9 3 5 - - 2.2
17/05:00am 18.4 21.4 18.4 100 0.0 CALM 0 2 0 1 - - 2.2
17/04:30am 18.4 20.2 18.4 100 0.0 ESE 6 9 3 5 - - 2.0
17/04:00am 18.5 20.4 18.5 100 0.0 SE 6 9 3 5 - - 2.0
17/03:30am 18.7 21.0 18.5 99 0.1 S 4 6 2 3 - - 1.6
17/03:00am 18.8 20.7 18.6 99 0.1 S 6 9 3 5 - - 1.4
17/02:30am 18.9 20.8 18.6 98 0.2 S 6 9 3 5 - - 1.0
17/02:00am 18.9 20.8 18.6 98 0.2 S 6 7 3 4 - - 1.0
17/01:30am 18.9 20.8 18.6 98 0.2 S 6 9 3 5 - - 1.0
17/01:00am 18.8 20.5 18.5 98 0.2 SSW 7 11 4 6 - - 1.0
17/12:30am 18.7 20.4 18.5 99 0.1 SSW 7 9 4 5 - - 1.0
17/12:00am 18.7 21.0 18.5 99 0.1 SW 4 7 2 4 - - 1.0
 
Date/Time
EST
Tmp

°C
App
Tmp
°C
Dew
Point
°C
Rel
Hum
%
Delta-T

°C
Wind Press
QNH
hPa
Press
MSL
hPa
Rain
since
9 am
mm
Dir
 
Spd
km/h
Gust
km/h
Spd
kts
Gust
kts
16/11:30pm 18.6 20.4 18.4 99 0.1 S 6 13 3 7 - - 1.0
16/11:00pm 18.6 20.4 18.4 99 0.1 SE 6 9 3 5 - - 1.0
16/10:30pm 18.8 20.8 18.8 100 0.0 SSE 6 11 3 6 - - 1.0
16/10:00pm 18.9 20.4 18.9 100 0.0 SE 9 17 5 9 - - 1.0
16/09:30pm 18.8 20.6 18.8 100 0.0 SE 7 17 4 9 - - 1.0
16/09:00pm 19.1 20.3 19.1 100 0.0 SE 11 22 6 12 - - 1.0
16/08:30pm 19.1 20.3 19.1 100 0.0 SE 11 22 6 12 - - 1.0
16/08:00pm 19.2 20.1 19.2 100 0.0 SSE 13 28 7 15 - - 1.0
16/07:30pm 19.5 20.5 19.5 100 0.0 SE 13 22 7 12 - - 1.0
16/07:00pm 19.8 20.8 19.5 98 0.2 SE 13 24 7 13 - - 0.8
16/06:30pm 20.4 21.7 19.2 93 0.8 SSE 11 17 6 9 - - 0.2
16/06:00pm 20.9 21.1 18.5 86 1.5 S 15 22 8 12 - - 0.2
16/05:30pm 22.7 24.4 18.5 77 2.7 SSW 7 20 4 11 - - 0.2
16/05:00pm 24.1 27.0 18.3 70 3.7 CALM 0 2 0 1 - - 0.2
16/04:30pm 25.1 27.3 19.2 70 3.8 ENE 6 7 3 4 - - 0.2
16/04:00pm 26.7 30.5 20.1 67 4.3 CALM 0 0 0 0 - - 0.2
16/03:30pm 26.7 29.1 18.8 62 5.1 E 4 7 2 4 - - 0.2
16/03:00pm 28.4 28.8 15.3 45 8.1 W 7 13 4 7 - - 0.2
16/02:30pm 29.1 30.1 16.3 46 8.0 W 6 13 3 7 - - 0.2
16/02:00pm 29.1 30.3 17.3 49 7.5 W 7 15 4 8 - - 0.2
16/01:30pm 29.1 30.5 17.9 50 7.2 WNW 7 15 4 8 - - 0.2
16/01:00pm 28.6 31.1 19.0 56 6.2 NW 4 9 2 5 - - 0.2
16/12:30pm 27.4 29.8 18.9 59 5.5 NNW 4 9 2 5 - - 0.2
16/12:00pm 25.9 27.3 17.8 61 5.1 N 7 15 4 8 - - 0.2
16/11:30am 26.5 28.6 18.9 63 4.9 NNW 6 11 3 6 - - 0.2
16/11:00am 26.1 27.9 18.2 61 5.0 NNW 6 9 3 5 - - 0.2
16/10:30am 25.8 27.6 18.7 65 4.6 W 7 11 4 6 - - 0.2
16/10:00am 25.4 26.7 17.6 62 4.9 WNW 7 13 4 7 - - 0.0
16/09:30am 24.6 25.9 17.6 65 4.4 NW 7 13 4 7 - - 0.0
16/09:00am 23.4 24.4 16.9 67 4.0 NW 7 13 4 7 - - 1.4
16/08:30am 22.5 23.2 17.0 71 3.4 NW 9 17 5 9 - - 1.4
16/08:00am 21.3 22.0 16.0 72 3.2 NW 7 17 4 9 - - 1.4
16/07:30am 20.3 20.9 15.7 75 2.8 NW 7 15 4 8 - - 1.4
16/07:00am 19.7 20.1 15.4 76 2.6 NW 7 15 4 8 - - 1.4
16/06:30am 18.9 19.3 14.8 77 2.4 WNW 6 9 3 5 - - 1.4
16/06:00am 19.2 18.6 14.7 75 2.6 NW 11 17 6 9 - - 1.4
16/05:30am 19.2 18.6 14.7 75 2.6 NW 11 22 6 12 - - 1.4
16/05:00am 18.7 17.9 15.0 79 2.2 NW 13 24 7 13 - - 1.4
16/04:30am 17.7 17.9 14.8 83 1.7 NW 7 17 4 9 - - 1.4
16/04:00am 17.3 17.6 14.6 84 1.6 NNW 6 13 3 7 - - 1.4
16/03:30am 17.8 17.2 14.5 81 1.9 NNW 11 20 6 11 - - 1.4
16/03:00am 17.9 17.3 14.6 81 1.9 NW 11 22 6 12 - - 1.4
16/02:30am 17.9 17.2 14.4 80 2.0 NW 11 20 6 11 - - 1.4
16/02:00am 17.8 16.8 14.5 81 1.9 NW 13 20 7 11 - - 1.4
16/01:30am 17.8 17.3 14.9 83 1.7 NW 11 19 6 10 - - 1.4
16/01:00am 17.6 17.1 14.9 84 1.6 NW 11 19 6 10 - - 1.4
16/12:30am 17.8 17.6 14.7 82 1.8 NW 9 19 5 10 - - 1.4
16/12:00am 18.4 17.6 14.1 76 2.5 NNW 11 19 6 10 - - 1.4
 
Date/Time
EST
Tmp

°C
App
Tmp
°C
Dew
Point
°C
Rel
Hum
%
Delta-T

°C
Wind Press
QNH
hPa
Press
MSL
hPa
Rain
since
9 am
mm
Dir
 
Spd
km/h
Gust
km/h
Spd
kts
Gust
kts
15/11:30pm 18.1 17.4 14.4 79 2.2 NW 11 17 6 9 - - 1.4
15/11:00pm 17.8 18.1 14.5 81 1.9 WNW 6 11 3 6 - - 1.4
15/10:30pm 18.4 18.2 14.7 79 2.2 WNW 9 20 5 11 - - 1.4
15/10:00pm 18.0 17.6 15.3 84 1.6 WNW 11 22 6 12 - - 1.4

Latest Capital City Observations: Canberra | Sydney | Melbourne | Brisbane | Adelaide | Perth | Hobart | Darwin

Other Formats:

Comma delimited format used in spreadsheet applications
http://www.bom.gov.au/fwo/IDN60901/IDN60901.94759.axf

JavaScript Object Notation format (JSON) in row-major order
http://www.bom.gov.au/fwo/IDN60901/IDN60901.94759.json